DTTJ/DJE METAR and TAF weather

Enter ICAO airport designator
Station Type Date Time Source
DTTJ METAR 2021/10/24 22:00 UTC NOAA

DTTJ 242200Z 30006KT 9999 FEW020CB SCT030 22/15 Q1015


Station Type Date Time Source
DTTJ Decoded METAR 2021/10/24 22:00 UTC NOAA

Djerba Mellita, Tunisia (DTTJ) 33-52N 010-46E 4M
Oct 24, 2021 - 06:00 PM EDT / 2021.10.24 2200 UTC
Wind: from the WNW (300 degrees) at 7 MPH (6 KT):0
Visibility: greater than 7 mile(s):0
Sky conditions: partly cloudy
Weather: Cumulonimbus clouds observed
Temperature: 71 F (22 C)
Dew Point: 59 F (15 C)
Relative Humidity: 64%
Pressure (altimeter): 29.97 in. Hg (1015 hPa)
ob: DTTJ 242200Z 30006KT 9999 FEW020CB SCT030 22/15 Q1015
cycle: 22

Station Type Date Time Source
DTTJ TAF 2021/10/24 18:09 UTC NOAA

TAF DTTJ 241700Z 2418/2518 32005KT 8000 FEW033 PROB40
TEMPO 2421/2501 35018G28KT TSRA FEW026CB
BECMG 2506/2512 33017G28KT

Example: see airport list